Time;durP1;ratioP1;P1;durP2;ratioP2;P2;SDS_P1;SDS_P2;PMS_P1;PMS_P2;Temp;Humidity;BMP_temperature;BMP_pressure;BME280_temperature;BME280_humidity;BME280_pressure;Samples;Min_cycle;Max_cycle;Signal;HPM_P1;HPM_P2
2023/02/16 00:00:15;;;;;;;22.55;11.27;;;;;;;-2.58;100.00;96499.91;5093291;28;20563;-71
2023/02/16 00:03:01;;;;;;;22.25;11.32;;;;;;;-2.71;100.00;96496.03;5082103;28;20083;-72
2023/02/16 00:05:29;;;;;;;24.55;11.60;;;;;;;-2.73;100.00;96497.97;5093364;28;20063;-72
2023/02/16 00:07:57;;;;;;;26.05;12.07;;;;;;;-3.02;100.00;96501.78;5092188;28;20055;-72
2023/02/16 00:10:23;;;;;;;23.30;12.32;;;;;;;-2.96;100.00;96496.03;5093087;28;20048;-72
2023/02/16 00:15:33;;;;;;;23.98;11.18;;;;;;;-2.85;100.00;96496.69;5089716;28;20078;-72
2023/02/16 00:18:01;;;;;;;23.42;11.80;;;;;;;-2.96;100.00;96483.16;5090243;28;20066;-72
2023/02/16 00:20:29;;;;;;;24.85;12.02;;;;;;;-3.00;100.00;96492.16;5090740;28;20040;-71
2023/02/16 00:22:55;;;;;;;20.23;10.18;;;;;;;-3.05;100.00;96493.59;5078400;28;20047;-72
2023/02/16 00:25:20;;;;;;;23.55;12.00;;;;;;;-3.23;100.00;96496.28;5091937;28;20044;-72
2023/02/16 00:27:46;;;;;;;25.25;12.32;;;;;;;-3.31;100.00;96490.16;5091782;28;20044;-72
2023/02/16 00:30:17;;;;;;;22.30;11.50;;;;;;;-3.23;100.00;96480.84;5083491;28;20040;-73
2023/02/16 00:32:43;;;;;;;22.73;11.45;;;;;;;-3.22;100.00;96482.47;5087731;28;20036;-73
2023/02/16 00:35:16;;;;;;;28.55;12.05;;;;;;;-3.33;100.00;96481.81;5089503;28;20043;-72
2023/02/16 00:37:43;;;;;;;23.67;12.85;;;;;;;-3.39;100.00;96477.28;5091442;28;20036;-73
2023/02/16 00:40:09;;;;;;;23.10;11.65;;;;;;;-3.34;100.00;96464.75;5092622;28;20048;-73
2023/02/16 00:42:36;;;;;;;20.27;10.68;;;;;;;-3.31;100.00;96463.63;5086752;28;20040;-73
2023/02/16 00:45:01;;;;;;;23.50;11.30;;;;;;;-3.32;100.00;96462.00;5089321;28;20044;-73
2023/02/16 00:47:38;;;;;;;20.90;11.00;;;;;;;-3.35;100.00;96458.00;5081999;28;20050;-73
2023/02/16 00:50:16;;;;;;;23.52;11.77;;;;;;;-3.37;100.00;96456.53;5085396;28;20050;-73
2023/02/16 00:52:44;;;;;;;25.08;11.60;;;;;;;-3.41;100.00;96450.09;5089213;28;20040;-73
2023/02/16 00:55:21;;;;;;;23.17;11.73;;;;;;;-3.54;100.00;96453.91;5087877;28;20554;-73
2023/02/16 00:57:52;;;;;;;23.88;11.63;;;;;;;-3.64;100.00;96447.31;5088685;28;20040;-73
2023/02/16 01:00:28;;;;;;;24.02;11.57;;;;;;;-3.60;100.00;96448.63;5092189;28;20115;-73
2023/02/16 01:03:00;;;;;;;23.48;12.05;;;;;;;-3.56;100.00;96449.88;5084967;28;20036;-73
2023/02/16 01:05:26;;;;;;;20.50;10.95;;;;;;;-3.58;100.00;96431.25;5087441;28;20032;-74
2023/02/16 01:13:40;;;;;;;22.95;11.30;;;;;;;-3.64;100.00;96429.31;5067169;28;20056;-73
2023/02/16 01:16:35;;;;;;;24.75;11.80;;;;;;;-3.73;100.00;96434.41;5089813;28;20040;-73
2023/02/16 01:19:00;;;;;;;;;;;;;;;-3.79;100.00;96445.34;5078102;28;20056;-74
2023/02/16 01:21:26;;;;;;;23.00;10.50;;;;;;;-3.79;100.00;96427.34;5085003;28;19958;-74
2023/02/16 01:23:51;;;;;;;21.70;11.45;;;;;;;-3.74;100.00;96439.72;5090449;28;20071;-74
2023/02/16 01:26:19;;;;;;;29.02;12.05;;;;;;;-3.68;100.00;96442.50;5090918;28;20117;-73
2023/02/16 01:28:46;;;;;;;40.25;15.20;;;;;;;-3.64;100.00;96442.16;5089201;28;20036;-73
2023/02/16 01:31:13;;;;;;;43.22;15.20;;;;;;;-3.70;100.00;96434.09;5085183;28;20059;-73
2023/02/16 01:33:40;;;;;;;30.70;13.63;;;;;;;-3.73;100.00;96442.13;5088421;28;20400;-74
2023/02/16 01:36:18;;;;;;;37.72;14.30;;;;;;;-3.76;100.00;96450.19;5090678;28;20048;-74
2023/02/16 01:38:44;;;;;;;35.83;14.23;;;;;;;-3.61;100.00;96452.16;5088913;28;20044;-74
2023/02/16 01:41:21;;;;;;;31.20;13.48;;;;;;;-3.74;100.00;96450.81;5089437;28;20109;-73
2023/02/16 01:43:57;;;;;;;30.15;13.35;;;;;;;-3.77;100.00;96443.41;5087073;28;20044;-74
2023/02/16 01:46:48;;;;;;;34.00;12.63;;;;;;;-3.78;100.00;96452.06;5090530;28;20040;-74
2023/02/16 01:49:15;;;;;;;31.20;11.90;;;;;;;-3.81;100.00;96442.09;5086499;28;20056;-73
2023/02/16 01:52:03;;;;;;;27.70;12.43;;;;;;;-3.73;100.00;96452.44;5087028;28;20044;-74
2023/02/16 01:54:40;;;;;;;29.48;12.38;;;;;;;-3.82;100.00;96450.81;5091144;28;20055;-74
2023/02/16 01:57:22;;;;;;;26.60;11.07;;;;;;;-3.80;100.00;96453.22;5087066;28;20087;-74
2023/02/16 01:59:47;;;;;;;21.83;9.85;;;;;;;-3.79;100.00;96455.63;5089753;28;20094;-74
2023/02/16 02:02:22;;;;;;;23.33;9.80;;;;;;;-3.87;100.00;96443.53;5086024;28;20051;-74
2023/02/16 02:07:45;;;;;;;21.30;10.05;;;;;;;-3.90;100.00;96445.63;5090232;28;20047;-73
2023/02/16 02:10:20;;;;;;;21.00;10.25;;;;;;;-3.88;100.00;96451.41;5089059;28;20054;-73
2023/02/16 02:13:05;;;;;;;;;;;;;;;-3.77;100.00;96458.84;5088674;28;20036;-74
2023/02/16 02:15:32;;;;;;;17.63;8.65;;;;;;;-3.82;100.00;96450.81;5082306;28;19989;-74
2023/02/16 02:17:58;;;;;;;18.25;8.93;;;;;;;-3.82;100.00;96445.66;5081837;28;20123;-74
2023/02/16 02:24:08;;;;;;;20.05;8.98;;;;;;;-3.97;100.00;96442.84;5089005;28;20040;-74
2023/02/16 02:26:55;;;;;;;20.00;10.13;;;;;;;-3.97;100.00;96436.91;5085062;28;20525;-73
2023/02/16 02:29:41;;;;;;;18.85;8.93;;;;;;;-3.97;100.00;96431.78;5087247;28;20502;-74
2023/02/16 02:32:09;;;;;;;25.20;10.13;;;;;;;-4.01;100.00;96437.22;5080315;28;20065;-74
2023/02/16 02:34:58;;;;;;;19.20;9.07;;;;;;;-4.08;100.00;96431.09;5085105;28;20637;-74
2023/02/16 02:38:05;;;;;;;22.40;9.40;;;;;;;-4.19;100.00;96428.78;5057630;28;20060;-74
2023/02/16 02:40:59;;;;;;;20.08;9.70;;;;;;;-4.09;100.00;96439.75;5084819;28;20052;-73
2023/02/16 02:43:44;;;;;;;19.52;9.10;;;;;;;-4.08;100.00;96435.41;5081935;28;20057;-74
2023/02/16 02:46:23;;;;;;;20.80;9.65;;;;;;;-4.13;100.00;96430.75;5083794;28;20059;-74
2023/02/16 02:48:49;;;;;;;21.35;9.68;;;;;;;-4.15;100.00;96432.66;5082941;28;20086;-74
2023/02/16 02:51:27;;;;;;;23.92;9.73;;;;;;;-4.25;100.00;96429.38;5081464;28;20051;-74
2023/02/16 03:02:36;;;;;;;24.63;10.35;;;;;;;-4.25;100.00;96419.09;5085394;28;20066;-74
2023/02/16 03:05:06;;;;;;;20.73;9.23;;;;;;;-4.22;100.00;96423.97;5082198;28;20040;-73
2023/02/16 03:07:47;;;;;;;21.00;9.00;;;;;;;-4.26;100.00;96422.66;5086476;28;20070;-74
2023/02/16 03:13:05;;;;;;;21.85;8.98;;;;;;;-4.32;100.00;96428.38;5080018;28;20044;-74
2023/02/16 03:15:33;;;;;;;18.70;9.02;;;;;;;-4.29;100.00;96422.97;5089894;28;20562;-74
2023/02/16 03:29:18;;;;;;;20.92;8.90;;;;;;;-4.36;100.00;96418.41;5082781;28;20442;-73
2023/02/16 03:31:45;;;;;;;20.83;8.85;;;;;;;-4.38;100.00;96425.50;5088630;28;20418;-74
2023/02/16 03:34:11;;;;;;;17.42;8.50;;;;;;;-4.38;100.00;96422.91;5077413;28;20123;-74
2023/02/16 03:36:41;;;;;;;15.85;7.90;;;;;;;-4.37;100.00;96428.84;5089552;28;20090;-74
2023/02/16 03:39:07;;;;;;;15.93;8.07;;;;;;;-4.41;100.00;96420.66;5088210;28;20047;-74
2023/02/16 03:41:37;;;;;;;17.65;8.52;;;;;;;-4.41;100.00;96425.81;5088005;28;20044;-74
2023/02/16 03:44:03;;;;;;;18.58;8.63;;;;;;;-4.43;100.00;96427.69;5081908;28;20050;-74
2023/02/16 03:46:29;;;;;;;15.30;7.35;;;;;;;-4.41;100.00;96435.25;5087669;28;20044;-74
2023/02/16 03:48:54;;;;;;;18.63;7.78;;;;;;;-4.42;100.00;96429.31;5087584;28;20491;-74
2023/02/16 03:51:20;;;;;;;18.02;8.73;;;;;;;-4.44;100.00;96431.25;5086499;28;20098;-73
2023/02/16 03:53:45;;;;;;;17.42;8.02;;;;;;;-4.44;100.00;96435.56;5088320;28;20044;-73
2023/02/16 03:56:11;;;;;;;18.15;7.65;;;;;;;-4.45;100.00;96434.78;5088855;28;20115;-74
2023/02/16 03:58:37;;;;;;;19.70;8.68;;;;;;;-4.48;100.00;96437.66;5082035;28;20499;-74
2023/02/16 04:01:03;;;;;;;16.63;8.55;;;;;;;-4.46;100.00;96443.44;5089275;28;20044;-74
2023/02/16 04:03:28;;;;;;;17.92;8.25;;;;;;;-4.52;100.00;96439.69;5083039;28;20036;-74
2023/02/16 04:05:55;;;;;;;18.00;7.95;;;;;;;-4.48;100.00;96447.91;5087143;28;20036;-74
2023/02/16 04:08:21;;;;;;;16.02;7.75;;;;;;;-4.54;100.00;96435.66;5084104;28;20043;-74
2023/02/16 04:10:47;;;;;;;20.40;8.98;;;;;;;-4.66;100.00;96452.31;5087628;28;20047;-74
2023/02/16 04:13:13;;;;;;;21.60;8.93;;;;;;;-4.51;100.00;96450.81;5087492;28;20044;-74
2023/02/16 04:15:40;;;;;;;18.48;8.30;;;;;;;-4.51;100.00;96445.66;5089651;28;20474;-74
2023/02/16 04:18:05;;;;;;;18.52;8.48;;;;;;;-4.55;100.00;96444.34;5091190;28;20040;-75
2023/02/16 04:20:32;;;;;;;16.40;7.65;;;;;;;-4.54;100.00;96445.94;5089579;28;20123;-74
2023/02/16 04:22:58;;;;;;;17.63;8.52;;;;;;;-4.54;100.00;96451.06;5083750;28;20064;-74
2023/02/16 04:25:24;;;;;;;16.35;7.63;;;;;;;-4.57;100.00;96456.53;5090880;28;20137;-74
2023/02/16 04:27:50;;;;;;;15.25;7.60;;;;;;;-4.57;100.00;96456.53;5089077;28;20487;-74
2023/02/16 04:30:19;;;;;;;17.98;7.45;;;;;;;-4.56;100.00;96458.13;5091648;28;20040;-74
2023/02/16 04:32:44;;;;;;;15.35;7.45;;;;;;;-4.59;100.00;96451.53;5085905;28;20041;-74
2023/02/16 04:35:10;;;;;;;18.70;7.78;;;;;;;-4.61;100.00;96456.03;5091820;28;20047;-74
2023/02/16 04:37:36;;;;;;;16.45;7.80;;;;;;;-4.66;100.00;96452.31;5091373;28;20047;-74
2023/02/16 04:40:02;;;;;;;19.25;7.47;;;;;;;-4.67;100.00;96455.81;5092661;28;20165;-74
2023/02/16 04:42:28;;;;;;;18.35;7.30;;;;;;;-4.70;100.00;96467.19;5089716;28;20569;-75
2023/02/16 04:44:53;;;;;;;14.18;6.47;;;;;;;-4.68;100.00;96464.47;5091002;28;20107;-74
2023/02/16 04:47:19;;;;;;;16.10;7.85;;;;;;;-4.70;100.00;96451.78;5087577;28;20059;-75
2023/02/16 04:49:45;;;;;;;16.60;7.63;;;;;;;-4.68;100.00;96454.19;5088833;28;20215;-74
2023/02/16 04:52:12;;;;;;;16.02;6.90;;;;;;;-4.76;100.00;96457.53;5091193;28;20495;-74
2023/02/16 04:54:38;;;;;;;14.98;7.05;;;;;;;-4.76;100.00;96458.31;5090991;28;20487;-74
2023/02/16 04:57:03;;;;;;;16.80;6.93;;;;;;;-4.79;100.00;96438.06;5083678;28;20048;-74
2023/02/16 04:59:29;;;;;;;13.52;6.97;;;;;;;-4.81;100.00;96460.53;5087180;28;20060;-74
2023/02/16 05:01:56;;;;;;;14.85;7.53;;;;;;;-4.88;100.00;96454.41;5089717;28;20040;-73
2023/02/16 05:04:23;;;;;;;17.92;7.85;;;;;;;-4.87;100.00;96455.97;5087882;28;20048;-74
2023/02/16 05:06:49;;;;;;;17.70;8.00;;;;;;;-4.82;100.00;96453.78;5089923;28;20040;-74
2023/02/16 05:09:15;;;;;;;16.27;6.55;;;;;;;-4.83;100.00;96447.03;5082457;28;20047;-74
2023/02/16 05:14:46;;;;;;;15.35;7.15;;;;;;;-4.77;100.00;96449.03;5091915;28;20036;-75
2023/02/16 05:17:21;;;;;;;17.88;7.57;;;;;;;-4.87;100.00;96449.09;5086010;28;20051;-74
2023/02/16 05:19:55;;;;;;;15.68;6.38;;;;;;;-4.84;100.00;96454.88;5091156;28;20511;-74
2023/02/16 05:22:21;;;;;;;18.23;7.30;;;;;;;-4.76;100.00;96448.03;5088654;28;20659;-74
2023/02/16 05:24:47;;;;;;;16.00;6.57;;;;;;;-4.81;100.00;96454.59;5087784;28;20053;-74
2023/02/16 05:27:18;;;;;;;18.60;7.78;;;;;;;-4.84;100.00;96450.56;5089951;28;20036;-74
2023/02/16 05:29:44;;;;;;;16.35;7.55;;;;;;;-4.83;100.00;96452.16;5089064;28;20032;-74
2023/02/16 05:32:10;;;;;;;14.80;7.45;;;;;;;-4.85;100.00;96448.97;5089113;28;20047;-74
2023/02/16 05:34:36;;;;;;;16.90;6.97;;;;;;;-4.89;100.00;96450.22;5084549;28;20042;-75
2023/02/16 05:37:01;;;;;;;17.23;6.63;;;;;;;-4.89;100.00;96463.03;5087697;28;20044;-74
2023/02/16 05:39:27;;;;;;;14.18;6.78;;;;;;;-4.93;100.00;96456.59;5090597;28;20048;-74
2023/02/16 05:41:52;;;;;;;19.95;7.78;;;;;;;-4.91;100.00;96449.56;5084353;28;20048;-74
2023/02/16 05:44:18;;;;;;;15.35;7.32;;;;;;;-4.91;100.00;96464.97;5091414;28;20083;-74
2023/02/16 05:46:45;;;;;;;15.25;6.90;;;;;;;-4.84;100.00;96465.97;5088221;28;20518;-73
2023/02/16 05:49:12;;;;;;;15.70;6.90;;;;;;;-4.81;100.00;96460.53;5083461;28;20048;-73
2023/02/16 05:51:37;;;;;;;14.43;6.57;;;;;;;-4.92;100.00;96473.63;5082969;28;20041;-74
2023/02/16 05:54:04;;;;;;;14.93;7.40;;;;;;;-4.91;100.00;96475.22;5091366;28;20044;-74
2023/02/16 05:56:30;;;;;;;19.42;7.07;;;;;;;-4.91;100.00;96480.38;5088067;28;20028;-74
2023/02/16 05:58:59;;;;;;;16.65;7.03;;;;;;;-4.91;100.00;96476.03;5084524;28;20487;-74
2023/02/16 06:01:26;;;;;;;16.13;6.78;;;;;;;-4.84;100.00;96490.84;5089831;28;20047;-75
2023/02/16 06:03:52;;;;;;;18.10;6.88;;;;;;;-4.92;100.00;96478.75;5086394;28;20481;-74
2023/02/16 06:06:17;;;;;;;13.10;6.32;;;;;;;-4.96;100.00;96487.69;5090169;28;20044;-75
2023/02/16 06:08:43;;;;;;;14.10;6.68;;;;;;;-4.95;100.00;96484.97;5088829;28;20123;-75
2023/02/16 06:11:34;;;;;;;16.73;7.32;;;;;;;-4.93;100.00;96492.53;5081553;28;20089;-75
2023/02/16 06:13:58;;;;;;;18.00;7.10;;;;;;;-4.92;100.00;96494.16;5090807;28;20066;-73
2023/02/16 06:16:28;;;;;;;18.52;7.05;;;;;;;-4.90;100.00;96497.38;5088845;28;20499;-74
2023/02/16 06:18:54;;;;;;;14.05;6.35;;;;;;;-4.88;100.00;96503.19;5088305;28;20036;-74
2023/02/16 06:21:21;;;;;;;15.52;6.40;;;;;;;-4.87;100.00;96504.78;5084136;28;20044;-73
2023/02/16 06:23:47;;;;;;;22.20;8.00;;;;;;;-4.84;100.00;96496.78;5087239;28;20047;-73
2023/02/16 06:26:13;;;;;;;19.25;7.13;;;;;;;-4.82;100.00;96514.63;5089804;28;20036;-73
2023/02/16 06:28:38;;;;;;;15.55;6.30;;;;;;;-4.79;100.00;96507.41;5088723;28;20040;-72
2023/02/16 06:31:04;;;;;;;14.20;6.55;;;;;;;-4.82;100.00;96512.06;5087503;28;20040;-74
2023/02/16 06:33:30;;;;;;;15.43;6.93;;;;;;;-4.81;100.00;96506.78;5083212;28;20040;-75
2023/02/16 06:35:55;;;;;;;16.98;7.18;;;;;;;-4.66;100.00;96508.81;5084157;28;20036;-75
2023/02/16 06:38:21;;;;;;;20.63;7.20;;;;;;;-4.57;100.00;96507.91;5091474;28;20044;-74
2023/02/16 06:40:46;;;;;;;19.10;7.60;;;;;;;-4.50;100.00;96503.78;5085345;28;20048;-74
2023/02/16 06:43:12;;;;;;;24.00;7.55;;;;;;;-4.39;100.00;96511.25;5083052;28;20083;-76
2023/02/16 06:45:37;;;;;;;29.00;8.50;;;;;;;-4.38;100.00;96512.88;5089919;28;20507;-75
2023/02/16 06:48:03;;;;;;;25.52;8.35;;;;;;;-4.33;100.00;96520.13;5090557;28;20044;-76
2023/02/16 06:50:28;;;;;;;54.13;21.92;;;;;;;-4.23;100.00;96514.88;5079055;28;20043;-76
2023/02/16 06:52:54;;;;;;;37.28;13.68;;;;;;;-4.25;100.00;96516.78;5090023;28;20040;-76
2023/02/16 06:55:20;;;;;;;40.95;13.88;;;;;;;-4.13;100.00;96507.88;5089224;28;20040;-76
2023/02/16 06:57:45;;;;;;;49.15;15.77;;;;;;;-4.11;100.00;96518.78;5087598;28;20047;-76
2023/02/16 07:00:11;;;;;;;49.63;16.10;;;;;;;-4.02;100.00;96519.66;5079882;28;20055;-76
2023/02/16 07:02:37;;;;;;;41.95;14.48;;;;;;;-3.97;100.00;96514.06;5080226;28;20040;-74
2023/02/16 07:05:02;;;;;;;36.53;12.07;;;;;;;-3.92;100.00;96514.38;5088893;28;20044;-74
2023/02/16 07:07:29;;;;;;;29.08;9.98;;;;;;;-3.83;100.00;96523.78;5087331;28;20138;-76
2023/02/16 07:09:55;;;;;;;20.10;9.13;;;;;;;-3.79;100.00;96519.94;5090471;28;20043;-77
2023/02/16 07:12:21;;;;;;;20.80;8.65;;;;;;;-3.66;100.00;96532.38;5082807;28;20045;-78
2023/02/16 07:14:46;;;;;;;19.10;7.63;;;;;;;-3.55;100.00;96523.56;5091097;28;20059;-78
2023/02/16 07:17:12;;;;;;;20.20;8.25;;;;;;;-3.44;100.00;96525.84;5088835;28;20098;-76
2023/02/16 07:19:37;;;;;;;19.92;7.68;;;;;;;-3.33;100.00;96528.13;5083883;28;20459;-76
2023/02/16 07:22:04;;;;;;;20.77;8.15;;;;;;;-3.26;100.00;96527.50;5086169;28;20051;-78
2023/02/16 07:24:29;;;;;;;32.55;11.25;;;;;;;-3.20;100.00;96521.75;5089162;28;20040;-76
2023/02/16 07:26:55;;;;;;;24.77;9.70;;;;;;;-3.06;100.00;96534.00;5086054;28;20039;-79
2023/02/16 07:29:21;;;;;;;22.30;8.52;;;;;;;-2.97;100.00;96527.91;5086604;28;20044;-75
2023/02/16 07:31:46;;;;;;;45.13;12.77;;;;;;;-2.87;100.00;96538.06;5084711;28;20036;-76
2023/02/16 07:34:12;;;;;;;37.13;10.00;;;;;;;-2.81;100.00;96526.31;5080922;28;20113;-76
2023/02/16 07:36:38;;;;;;;33.20;9.63;;;;;;;-2.74;100.00;96529.84;5081317;28;20045;-76
2023/02/16 07:39:03;;;;;;;23.95;9.02;;;;;;;-2.68;100.00;96526.63;5088242;28;20388;-76
2023/02/16 07:41:29;;;;;;;25.52;10.02;;;;;;;-2.59;100.00;96545.47;5081244;28;20757;-75
2023/02/16 07:43:54;;;;;;;25.73;8.48;;;;;;;-2.54;100.00;96539.81;5088864;28;20510;-76
2023/02/16 07:46:20;;;;;;;24.98;7.95;;;;;;;-2.41;100.00;96537.59;5089993;28;20048;-76
2023/02/16 07:48:47;;;;;;;21.23;8.02;;;;;;;-2.23;100.00;96545.13;5087197;28;20518;-75
2023/02/16 07:51:22;;;;;;;22.17;8.30;;;;;;;-2.16;100.00;96555.63;5080275;28;20053;-74
2023/02/16 07:53:48;;;;;;;26.15;9.35;;;;;;;-2.14;100.00;96548.50;5090438;28;20060;-74
2023/02/16 07:56:22;;;;;;;22.95;8.65;;;;;;;-2.05;100.00;96552.69;5088500;28;20526;-72
2023/02/16 07:58:51;;;;;;;20.30;9.13;;;;;;;-1.99;100.00;96552.03;5092275;28;20129;-74
2023/02/16 08:01:16;;;;;;;23.23;8.68;;;;;;;-1.99;100.00;96546.88;5086315;28;20045;-74
2023/02/16 08:03:42;;;;;;;20.83;8.52;;;;;;;-1.87;100.00;96551.69;5086580;28;20458;-74
2023/02/16 08:06:08;;;;;;;22.90;7.80;;;;;;;-1.84;100.00;96549.59;5091970;28;20040;-74
2023/02/16 08:08:34;;;;;;;21.48;8.48;;;;;;;-1.72;100.00;96542.31;5088488;28;20105;-73
2023/02/16 08:11:07;;;;;;;21.00;8.88;;;;;;;-1.53;100.00;96551.44;5092089;28;20032;-74
2023/02/16 08:13:32;;;;;;;20.58;7.80;;;;;;;-1.42;100.00;96548.47;5076829;28;20068;-73
2023/02/16 08:15:58;;;;;;;23.55;9.25;;;;;;;-1.39;100.00;96552.50;5093251;28;20056;-73
2023/02/16 08:18:23;;;;;;;25.65;9.15;;;;;;;-1.27;100.00;96545.97;5093063;28;20091;-73
2023/02/16 08:20:49;;;;;;;27.75;9.13;;;;;;;-1.20;100.00;96550.50;5088734;28;20097;-73
2023/02/16 08:23:14;;;;;;;23.00;9.48;;;;;;;-1.16;100.00;96549.19;5093309;28;20040;-73
2023/02/16 08:25:40;;;;;;;24.95;9.23;;;;;;;-1.04;100.00;96550.38;5090701;28;20044;-73
2023/02/16 08:28:05;;;;;;;28.90;8.30;;;;;;;-0.88;100.00;96557.25;5086218;28;20119;-73
2023/02/16 08:30:33;;;;;;;22.02;8.52;;;;;;;-0.76;100.00;96562.81;5088446;28;20037;-72
2023/02/16 08:33:00;;;;;;;22.83;8.05;;;;;;;-0.62;100.00;96564.66;5081380;28;20489;-72
2023/02/16 08:35:31;;;;;;;24.20;9.20;;;;;;;-0.42;100.00;96559.03;5091319;28;20043;-72
2023/02/16 08:37:58;;;;;;;22.85;8.77;;;;;;;-0.26;100.00;96564.09;5092245;28;20040;-72
2023/02/16 08:40:25;;;;;;;24.55;8.38;;;;;;;-0.10;100.00;96562.31;5091316;28;20048;-72
2023/02/16 08:42:51;;;;;;;26.30;9.07;;;;;;;-0.01;100.00;96556.09;5087672;28;20048;-72
2023/02/16 08:45:17;;;;;;;25.05;8.50;;;;;;;0.15;100.00;96561.09;5092402;28;20051;-71
2023/02/16 08:47:43;;;;;;;23.40;9.27;;;;;;;0.32;100.00;96553.19;5085605;28;20043;-71
2023/02/16 08:50:10;;;;;;;31.55;8.98;;;;;;;0.63;100.00;96552.16;5090393;28;20119;-71
2023/02/16 08:52:35;;;;;;;22.67;8.20;;;;;;;1.29;100.00;96548.69;5090845;28;20070;-71
2023/02/16 08:55:02;;;;;;;23.65;7.78;;;;;;;1.67;100.00;96551.84;5090612;28;20040;-71
2023/02/16 08:57:27;;;;;;;20.52;6.88;;;;;;;1.49;100.00;96552.28;5090671;28;20040;-71
2023/02/16 09:00:32;;;;;;;16.80;6.75;;;;;;;1.32;100.00;96549.16;5090271;28;20046;-71
2023/02/16 09:02:38;;;;;;;18.17;6.97;;;;;;;1.56;100.00;96547.94;5081868;28;20440;-71
2023/02/16 09:05:04;;;;;;;13.07;5.20;;;;;;;2.10;100.00;96548.38;5092073;28;20058;-71
2023/02/16 09:07:33;;;;;;;13.55;5.72;;;;;;;2.49;100.00;96547.00;5092467;28;20572;-71
2023/02/16 09:10:00;;;;;;;14.35;5.05;;;;;;;2.41;100.00;96549.75;5083539;28;20573;-71
2023/02/16 09:12:26;;;;;;;15.65;5.20;;;;;;;2.73;100.00;96550.09;5083998;28;20036;-71
2023/02/16 09:14:54;;;;;;;14.82;5.07;;;;;;;2.64;100.00;96543.47;5091237;28;20051;-71
2023/02/16 09:17:20;;;;;;;12.05;5.10;;;;;;;3.10;100.00;96553.22;5091034;28;20063;-71
2023/02/16 09:19:46;;;;;;;13.63;5.15;;;;;;;3.33;100.00;96552.09;5087932;28;20037;-71
2023/02/16 09:22:11;;;;;;;14.13;5.40;;;;;;;3.50;100.00;96548.09;5091642;28;20040;-71
2023/02/16 09:24:37;;;;;;;12.27;4.82;;;;;;;3.86;100.00;96553.94;5083895;28;20094;-71
2023/02/16 09:27:03;;;;;;;13.57;5.05;;;;;;;4.58;100.00;96552.22;5090996;28;20445;-72
2023/02/16 09:29:28;;;;;;;10.40;5.22;;;;;;;4.24;100.00;96554.13;5090075;28;20115;-71
2023/02/16 09:31:54;;;;;;;15.07;4.88;;;;;;;4.08;100.00;96554.53;5090189;28;20036;-71
2023/02/16 09:34:22;;;;;;;10.75;4.70;;;;;;;4.53;100.00;96557.25;5086649;28;20040;-72
2023/02/16 09:36:49;;;;;;;12.30;4.88;;;;;;;4.82;100.00;96549.94;5090341;28;20071;-71
2023/02/16 09:39:15;;;;;;;11.57;4.57;;;;;;;5.15;100.00;96546.38;5090204;28;20494;-72
2023/02/16 09:41:50;;;;;;;15.38;5.47;;;;;;;6.09;100.00;96553.59;5083253;28;20048;-72
2023/02/16 09:44:36;;;;;;;11.40;5.15;;;;;;;6.16;100.00;96543.88;5086339;28;20062;-71
2023/02/16 09:47:08;;;;;;;12.18;5.28;;;;;;;6.46;100.00;96543.19;5083564;28;20040;-71
2023/02/16 09:49:42;;;;;;;15.00;5.40;;;;;;;6.86;100.00;96547.97;5085109;28;20506;-71
2023/02/16 09:52:34;;;;;;;14.82;5.45;;;;;;;7.30;100.00;96543.38;5089950;28;20047;-72
2023/02/16 09:55:04;;;;;;;11.10;4.97;;;;;;;7.64;100.00;96548.94;5091676;28;20515;-72
2023/02/16 09:58:00;;;;;;;9.55;5.05;;;;;;;7.87;97.74;96542.13;5085819;28;20036;-72
2023/02/16 10:01:05;;;;;;;10.88;4.78;;;;;;;8.03;100.00;96545.91;5082309;28;20091;-71
2023/02/16 10:03:42;;;;;;;14.48;5.28;;;;;;;8.40;95.91;96551.72;5081924;28;20044;-72
2023/02/16 10:06:34;;;;;;;11.60;5.28;;;;;;;8.87;86.78;96544.84;5083800;28;20044;-73
2023/02/16 10:09:09;;;;;;;11.30;5.07;;;;;;;9.53;81.01;96538.16;5084811;28;20051;-72
2023/02/16 10:12:03;;;;;;;17.35;6.07;;;;;;;10.05;75.32;96539.00;5085931;28;20044;-72
2023/02/16 10:14:40;;;;;;;14.02;5.20;;;;;;;10.92;70.78;96542.03;5090576;28;20521;-72
2023/02/16 10:17:34;;;;;;;10.75;5.32;;;;;;;11.74;63.24;96542.03;5076285;28;20036;-72
2023/02/16 10:20:31;;;;;;;10.40;4.63;;;;;;;11.17;62.96;96533.59;5080692;28;20036;-72
2023/02/16 10:23:02;;;;;;;11.35;5.35;;;;;;;11.96;58.46;96534.84;5086849;28;20043;-72
2023/02/16 10:25:48;;;;;;;11.05;5.18;;;;;;;11.41;59.46;96535.94;5082940;28;20495;-72
2023/02/16 10:28:17;;;;;;;13.63;5.07;;;;;;;11.61;60.90;96538.75;5082066;28;20033;-73
2023/02/16 10:30:55;;;;;;;10.25;5.00;;;;;;;11.91;56.87;96532.16;5085512;28;20044;-75
2023/02/16 10:33:35;;;;;;;11.00;5.18;;;;;;;11.79;56.75;96534.97;5083519;28;20044;-76
2023/02/16 10:36:26;;;;;;;9.38;5.00;;;;;;;11.37;60.62;96532.22;5093724;28;20040;-71
2023/02/16 10:39:26;;;;;;;10.85;5.20;;;;;;;11.37;58.11;96532.22;5097879;27;20594;-72
2023/02/16 10:42:06;;;;;;;11.75;5.40;;;;;;;12.50;55.88;96527.81;5083155;28;20040;-72
2023/02/16 10:44:40;;;;;;;10.73;4.85;;;;;;;12.77;49.88;96532.97;5092278;28;20044;-72
2023/02/16 10:47:22;;;;;;;8.63;4.82;;;;;;;13.58;51.86;96530.81;5087423;28;20068;-71
2023/02/16 10:49:48;;;;;;;13.75;4.93;;;;;;;14.76;45.04;96521.16;5086124;28;20040;-72
2023/02/16 10:52:14;;;;;;;13.93;5.22;;;;;;;14.38;44.49;96516.22;5076166;28;20044;-72
2023/02/16 10:54:42;;;;;;;15.05;5.53;;;;;;;15.22;42.23;96518.28;5084957;28;20499;-73
2023/02/16 10:57:24;;;;;;;12.20;4.90;;;;;;;15.45;39.45;96518.69;5088060;28;20044;-72
2023/02/16 10:59:50;;;;;;;10.75;5.18;;;;;;;15.00;42.55;96511.50;5082301;28;20047;-73
2023/02/16 11:02:24;;;;;;;13.23;4.63;;;;;;;14.53;43.65;96520.66;5086477;28;20435;-74
2023/02/16 11:04:55;;;;;;;16.27;4.95;;;;;;;14.24;42.60;96505.38;5089383;28;20044;-74
2023/02/16 11:07:24;;;;;;;13.07;4.90;;;;;;;13.41;42.91;96506.47;5088104;28;20449;-73
2023/02/16 11:09:54;;;;;;;9.27;4.55;;;;;;;13.41;46.18;96509.91;5088628;28;20043;-73
2023/02/16 11:12:33;;;;;;;10.02;4.38;;;;;;;13.33;42.85;96503.25;5085318;28;20055;-74
2023/02/16 11:15:02;;;;;;;11.75;4.75;;;;;;;13.04;44.78;96510.06;5080653;28;20098;-73
2023/02/16 11:17:29;;;;;;;12.88;4.35;;;;;;;13.93;41.19;96497.47;5088235;28;20044;-73
2023/02/16 11:20:02;;;;;;;10.88;4.95;;;;;;;14.42;42.75;96500.56;5087377;28;20085;-74
2023/02/16 11:22:30;;;;;;;8.45;4.43;;;;;;;13.76;41.43;96489.03;5089720;28;20051;-73
2023/02/16 11:24:58;;;;;;;8.20;4.78;;;;;;;14.62;40.73;96500.53;5087974;28;20514;-75
2023/02/16 11:27:25;;;;;;;9.95;5.20;;;;;;;15.14;39.33;96495.81;5089582;28;20088;-73
2023/02/16 11:30:21;;;;;;;13.45;5.18;;;;;;;14.29;40.77;96494.75;5086675;28;20044;-73
2023/02/16 11:32:47;;;;;;;10.95;4.78;;;;;;;15.36;39.88;96482.13;5082904;28;20399;-72
2023/02/16 11:35:14;;;;;;;12.50;4.95;;;;;;;15.89;37.82;96483.34;5090014;28;20048;-72
2023/02/16 11:37:40;;;;;;;11.27;5.30;;;;;;;14.99;38.76;96478.09;5089404;28;20036;-73
2023/02/16 11:40:19;;;;;;;11.32;5.00;;;;;;;15.52;37.52;96480.16;5086965;28;20119;-74
2023/02/16 11:42:48;;;;;;;9.95;4.65;;;;;;;15.69;38.18;96474.44;5082709;28;20109;-74
2023/02/16 11:45:33;;;;;;;11.52;5.25;;;;;;;16.51;37.83;96472.09;5094939;28;20044;-73
2023/02/16 11:48:06;;;;;;;9.93;5.05;;;;;;;15.86;37.40;96473.28;5088795;28;20044;-74
2023/02/16 11:50:37;;;;;;;9.90;5.20;;;;;;;16.83;34.91;96468.78;5093623;28;20036;-74
2023/02/16 11:53:08;;;;;;;12.82;5.13;;;;;;;16.13;36.71;96461.34;5086839;28;20036;-74
2023/02/16 11:55:36;;;;;;;14.20;5.45;;;;;;;15.00;38.07;96453.19;5091625;28;20115;-75
2023/02/16 11:58:21;;;;;;;11.02;5.35;;;;;;;15.01;37.86;96454.78;5073562;28;20052;-73
2023/02/16 12:01:07;;;;;;;;;;;;;;;16.83;35.76;96438.75;5091748;28;20036;-74
2023/02/16 12:04:06;;;;;;;11.43;4.95;;;;;;;17.43;34.38;96433.63;5086443;28;19969;-73
2023/02/16 12:06:57;;;;;;;11.88;5.60;;;;;;;17.76;35.77;96430.97;5090228;28;20763;-75
2023/02/16 12:09:32;;;;;;;11.50;5.30;;;;;;;18.52;33.32;96429.88;5091838;28;20127;-74
2023/02/16 12:12:19;;;;;;;9.15;5.00;;;;;;;19.47;30.71;96421.13;5087460;28;20036;-73
2023/02/16 12:14:55;;;;;;;16.48;5.70;;;;;;;18.55;31.31;96417.81;5083388;28;20467;-73